Time;durP1;ratioP1;P1;durP2;ratioP2;P2;SDS_P1;SDS_P2;PMS_P1;PMS_P2;Temp;Humidity;BMP_temperature;BMP_pressure;BME280_temperature;BME280_humidity;BME280_pressure;Samples;Min_cycle;Max_cycle;Signal;HPM_P1;HPM_P2
2022/06/03 00:01:00;;;;;;;7.78;7.10;;;;;;;21.61;nan;99774.00;4959238;28;20135;-79
2022/06/03 00:03:35;;;;;;;7.28;6.68;;;;;;;21.67;nan;99772.34;4957852;28;20051;-78
2022/06/03 00:06:00;;;;;;;7.93;6.70;;;;;;;21.69;nan;99775.63;4959515;28;20126;-78
2022/06/03 00:08:50;;;;;;;6.68;6.18;;;;;;;21.64;nan;99777.09;4958653;28;20146;-78
2022/06/03 00:11:36;;;;;;;7.07;6.38;;;;;;;21.61;nan;99774.84;4960897;28;20111;-79
2022/06/03 00:14:23;;;;;;;7.25;6.55;;;;;;;21.62;nan;99765.72;4961704;28;20047;-77
2022/06/03 00:16:58;;;;;;;7.88;7.18;;;;;;;21.66;nan;99760.78;4959784;28;20047;-78
2022/06/03 00:19:43;;;;;;;8.60;6.53;;;;;;;21.68;nan;99774.00;4960256;28;20039;-78
2022/06/03 00:22:29;;;;;;;7.72;6.75;;;;;;;21.67;nan;99769.66;4962247;28;20110;-79
2022/06/03 00:25:28;;;;;;;7.15;6.18;;;;;;;21.55;nan;99775.66;4960419;28;20539;-78
2022/06/03 00:28:12;;;;;;;6.80;6.25;;;;;;;21.54;nan;99767.81;4960408;28;20070;-78
2022/06/03 00:30:57;;;;;;;6.85;6.35;;;;;;;21.50;nan;99767.38;4961160;28;20047;-79
2022/06/03 00:33:43;;;;;;;7.25;6.65;;;;;;;21.47;nan;99766.97;4960332;28;20036;-78
2022/06/03 00:36:12;;;;;;;8.07;7.10;;;;;;;21.43;nan;99771.13;4962568;28;20031;-79
2022/06/03 00:39:22;;;;;;;7.65;6.95;;;;;;;21.39;nan;99781.44;4961182;28;20035;-79
2022/06/03 00:42:13;;;;;;;7.53;6.68;;;;;;;21.32;nan;99780.63;4962994;28;20134;-78
2022/06/03 00:45:00;;;;;;;7.60;6.63;;;;;;;21.33;nan;99776.91;4979130;28;20043;-78
2022/06/03 00:48:03;;;;;;;8.98;7.20;;;;;;;21.23;nan;99789.91;4976302;28;20035;-79
2022/06/03 00:50:48;;;;;;;7.95;6.93;;;;;;;21.19;nan;99802.91;4961409;28;20046;-79
2022/06/03 00:53:32;;;;;;;7.28;6.57;;;;;;;21.17;nan;99796.91;4959903;28;20043;-79
2022/06/03 00:56:23;;;;;;;8.50;7.68;;;;;;;21.16;nan;99797.13;4963012;28;20035;-79
2022/06/03 00:59:33;;;;;;;7.60;6.90;;;;;;;21.09;nan;99801.63;4960982;28;20451;-78
2022/06/03 01:02:06;;;;;;;7.10;6.47;;;;;;;21.00;nan;99797.50;4957775;28;20515;-79
2022/06/03 01:04:37;;;;;;;7.47;6.57;;;;;;;20.92;nan;99795.81;4960843;28;20114;-79
2022/06/03 01:07:19;;;;;;;8.15;6.82;;;;;;;20.89;nan;99800.78;4961032;28;20043;-79
2022/06/03 01:10:22;;;;;;;9.48;7.28;;;;;;;20.82;nan;99801.59;4960205;28;20039;-79
2022/06/03 01:13:12;;;;;;;7.47;6.68;;;;;;;20.78;nan;99805.72;4962866;28;20134;-79
2022/06/03 01:16:04;;;;;;;7.93;7.20;;;;;;;20.58;nan;99794.09;4961436;28;20055;-79
2022/06/03 01:18:52;;;;;;;7.40;6.72;;;;;;;20.64;nan;99798.66;4964170;28;20055;-79
2022/06/03 01:21:41;;;;;;;7.60;6.97;;;;;;;20.60;nan;99792.03;4963337;28;20030;-78
2022/06/03 01:24:31;;;;;;;7.40;6.80;;;;;;;20.55;nan;99796.34;4962239;28;20395;-78
2022/06/03 01:27:16;;;;;;;;;;;;;;;20.55;nan;99794.50;4964742;28;20431;-79
2022/06/03 01:30:13;;;;;;;7.80;7.10;;;;;;;20.55;nan;99794.50;4964185;28;20262;-79
2022/06/03 01:32:45;;;;;;;7.32;6.65;;;;;;;20.58;nan;99807.50;4965536;28;20043;-80
2022/06/03 01:35:35;;;;;;;10.27;7.38;;;;;;;20.66;nan;99807.31;4964212;28;20109;-79
2022/06/03 01:38:01;;;;;;;8.55;7.78;;;;;;;20.69;nan;99812.25;4964207;28;20042;-79
2022/06/03 01:40:54;;;;;;;8.55;7.70;;;;;;;20.73;nan;99818.91;4965676;28;20043;-78
2022/06/03 01:44:08;;;;;;;7.55;6.95;;;;;;;20.74;nan;99820.53;4963147;28;20047;-78
2022/06/03 01:47:02;;;;;;;8.60;8.00;;;;;;;20.61;nan;99814.31;4963107;28;20065;-80
2022/06/03 01:49:52;;;;;;;9.65;7.47;;;;;;;20.53;nan;99812.63;4962981;28;20043;-80
2022/06/03 01:52:33;;;;;;;8.15;7.55;;;;;;;20.46;nan;99817.13;4962873;28;20035;-79
2022/06/03 01:55:38;;;;;;;8.27;7.57;;;;;;;20.48;nan;99815.09;4962988;28;20039;-78
2022/06/03 01:58:41;;;;;;;8.07;7.32;;;;;;;20.49;nan;99810.56;4963842;28;20115;-79
2022/06/03 02:01:40;;;;;;;8.15;7.45;;;;;;;20.49;nan;99806.03;4963887;28;20039;-78
2022/06/03 02:04:24;;;;;;;8.45;7.75;;;;;;;20.52;nan;99808.28;4978940;28;20053;-79
2022/06/03 02:07:01;;;;;;;9.48;7.55;;;;;;;20.53;nan;99807.28;4961420;28;20050;-79
2022/06/03 02:09:58;;;;;;;8.43;7.72;;;;;;;20.54;nan;99803.56;4961701;28;20071;-79
2022/06/03 02:12:44;;;;;;;7.90;7.22;;;;;;;20.60;nan;99793.91;4961849;28;20050;-79
2022/06/03 02:15:31;;;;;;;10.02;8.07;;;;;;;20.58;nan;99794.09;4964335;28;20385;-79
2022/06/03 02:18:36;;;;;;;10.27;7.25;;;;;;;20.57;nan;99795.09;4962732;28;20039;-79
2022/06/03 02:21:18;;;;;;;7.68;7.07;;;;;;;20.60;nan;99792.03;4978278;28;20104;-79
2022/06/03 02:23:55;;;;;;;8.38;7.55;;;;;;;20.63;nan;99796.97;4962413;28;20097;-79
2022/06/03 02:26:44;;;;;;;8.20;7.50;;;;;;;20.66;nan;99796.59;4961899;28;20040;-79
2022/06/03 02:32:39;;;;;;;8.25;7.45;;;;;;;20.61;nan;99796.38;4963732;28;20039;-79
2022/06/03 02:35:20;;;;;;;7.68;6.97;;;;;;;20.64;nan;99790.59;4963588;28;20054;-79
2022/06/03 02:38:04;;;;;;;8.10;7.43;;;;;;;20.64;nan;99793.28;4962036;28;20041;-79
2022/06/03 02:41:01;;;;;;;9.00;8.07;;;;;;;20.52;nan;99784.16;4962288;28;20043;-79
2022/06/03 02:43:55;;;;;;;8.40;7.70;;;;;;;20.44;nan;99789.69;4962438;28;20041;-79
2022/06/03 02:46:55;;;;;;;8.10;7.30;;;;;;;20.43;nan;99790.75;4960695;28;20510;-79
2022/06/03 02:49:50;;;;;;;8.30;7.53;;;;;;;20.45;nan;99802.06;4961110;28;20043;-78
2022/06/03 02:52:32;;;;;;;8.60;7.88;;;;;;;20.13;nan;99810.78;4964979;28;20403;-79
2022/06/03 02:55:04;;;;;;;8.32;7.63;;;;;;;20.01;nan;99805.97;4962300;28;20043;-78
2022/06/03 02:57:32;;;;;;;10.95;7.45;;;;;;;20.01;nan;99803.28;4963282;28;20059;-79
2022/06/03 03:00:04;;;;;;;9.18;7.30;;;;;;;20.04;nan;99812.78;4961907;28;20035;-79
2022/06/03 03:02:40;;;;;;;7.38;6.78;;;;;;;20.03;nan;99805.75;4963465;28;20093;-78
2022/06/03 03:05:18;;;;;;;8.10;7.38;;;;;;;20.03;nan;99811.94;4965736;28;20403;-79
2022/06/03 03:08:11;;;;;;;8.20;7.50;;;;;;;20.00;nan;99801.63;4963967;28;20062;-78
2022/06/03 03:10:57;;;;;;;7.90;7.22;;;;;;;19.89;nan;99801.34;4962697;28;20038;-79
2022/06/03 03:14:00;;;;;;;7.95;7.32;;;;;;;19.87;nan;99801.56;4961003;28;20074;-79
2022/06/03 03:17:04;;;;;;;7.93;7.18;;;;;;;19.91;nan;99813.50;4960737;28;20054;-78
2022/06/03 03:20:07;;;;;;;8.32;7.63;;;;;;;19.95;nan;99814.78;4963496;28;20066;-78
2022/06/03 03:22:58;;;;;;;8.25;7.63;;;;;;;19.93;nan;99827.53;4961125;28;20042;-79
2022/06/03 03:26:03;;;;;;;7.55;6.85;;;;;;;19.98;nan;99830.47;4979157;28;20110;-79
2022/06/03 03:28:47;;;;;;;10.25;8.20;;;;;;;19.80;nan;99832.81;4959331;28;20456;-79
2022/06/03 03:31:34;;;;;;;10.45;6.75;;;;;;;19.85;nan;99835.72;4961176;28;20031;-79
2022/06/03 03:34:09;;;;;;;8.35;7.55;;;;;;;19.70;nan;99829.66;4961614;28;20118;-79
2022/06/03 03:37:02;;;;;;;7.90;7.20;;;;;;;19.60;nan;99829.16;4961156;28;20034;-79
2022/06/03 03:39:37;;;;;;;8.32;7.72;;;;;;;19.63;nan;99826.09;4976034;28;20122;-79
2022/06/03 03:42:38;;;;;;;11.52;7.70;;;;;;;19.59;nan;99835.53;4962879;28;20027;-79
2022/06/03 03:45:25;;;;;;;7.70;7.20;;;;;;;19.60;nan;99831.84;4959660;28;20046;-79
2022/06/03 03:48:22;;;;;;;8.52;7.68;;;;;;;19.56;nan;99846.63;4960295;28;20043;-79
2022/06/03 03:51:19;;;;;;;8.65;7.80;;;;;;;19.60;nan;99850.59;4963853;28;20065;-79
2022/06/03 03:53:59;;;;;;;7.93;7.15;;;;;;;19.68;nan;99845.06;4961439;28;20047;-79
2022/06/03 03:56:42;;;;;;;8.68;7.85;;;;;;;19.70;nan;99843.03;4961415;28;20054;-79
2022/06/03 03:59:26;;;;;;;8.00;7.30;;;;;;;19.75;nan;99845.97;4962314;28;20033;-79
2022/06/03 04:02:29;;;;;;;8.18;7.50;;;;;;;19.80;nan;99854.22;4960161;28;20118;-76
2022/06/03 04:05:16;;;;;;;7.93;7.32;;;;;;;19.85;nan;99857.16;4960470;28;20035;-80
2022/06/03 04:08:19;;;;;;;8.88;7.97;;;;;;;19.83;nan;99853.84;4976342;28;20039;-79
2022/06/03 04:11:19;;;;;;;7.88;7.18;;;;;;;19.86;nan;99852.63;4993155;28;20043;-78
2022/06/03 04:13:50;;;;;;;8.60;7.70;;;;;;;19.82;nan;99867.44;4974611;28;20133;-79
2022/06/03 04:16:43;;;;;;;8.90;8.05;;;;;;;19.79;nan;99874.00;4959772;28;20082;-79
2022/06/03 04:19:15;;;;;;;8.43;7.80;;;;;;;19.76;nan;99869.03;4959778;28;20050;-80
2022/06/03 04:21:56;;;;;;;8.75;7.78;;;;;;;19.77;nan;99860.00;4963614;28;20367;-79
2022/06/03 04:24:39;;;;;;;8.73;7.88;;;;;;;19.80;nan;99867.63;4960340;28;20059;-79
2022/06/03 04:27:42;;;;;;;8.90;8.18;;;;;;;19.81;nan;99863.09;4961149;28;20039;-80
2022/06/03 04:30:13;;;;;;;8.65;7.85;;;;;;;19.74;nan;99867.56;4961038;28;20152;-80
2022/06/03 04:32:53;;;;;;;8.45;7.53;;;;;;;19.78;nan;99866.19;4958191;28;20040;-80
2022/06/03 04:35:40;;;;;;;8.68;7.88;;;;;;;19.76;nan;99863.69;4959400;28;20035;-80
2022/06/03 04:38:39;;;;;;;9.23;8.32;;;;;;;19.73;nan;99866.75;4961045;28;20068;-80
2022/06/03 04:41:41;;;;;;;8.48;7.63;;;;;;;19.75;nan;99867.38;4960889;28;20477;-80
2022/06/03 04:44:34;;;;;;;10.18;9.00;;;;;;;19.83;nan;99875.28;4961083;28;20035;-79
2022/06/03 04:47:18;;;;;;;8.65;7.95;;;;;;;19.89;nan;99869.16;4959936;28;20119;-79
2022/06/03 04:49:58;;;;;;;9.02;7.82;;;;;;;20.00;nan;99873.97;4959803;28;20069;-80
2022/06/03 04:52:27;;;;;;;;;;;;;;;20.00;nan;99882.00;4977687;28;20526;-79
2022/06/03 04:55:31;;;;;;;8.63;7.78;;;;;;;20.03;nan;99886.94;4962535;28;20434;-79
2022/06/03 04:58:30;;;;;;;8.20;7.40;;;;;;;20.03;nan;99886.94;4963458;28;20126;-78
2022/06/03 05:01:14;;;;;;;9.43;7.47;;;;;;;20.04;nan;99867.19;4962347;28;20023;-79
2022/06/03 05:03:58;;;;;;;8.35;7.55;;;;;;;20.07;nan;99865.13;4963156;28;20038;-78
2022/06/03 05:07:00;;;;;;;8.40;7.78;;;;;;;20.09;nan;99852.38;4962367;28;20058;-78
2022/06/03 05:10:03;;;;;;;8.93;8.23;;;;;;;20.01;nan;99856.03;4962454;28;20457;-79
2022/06/03 05:13:13;;;;;;;9.15;8.27;;;;;;;20.01;nan;99848.00;4961240;28;20042;-79
2022/06/03 05:16:04;;;;;;;8.65;7.80;;;;;;;20.03;nan;99849.44;4922174;28;1160118;-78
2022/06/03 05:18:44;;;;;;;8.80;8.07;;;;;;;20.09;nan;99847.03;4963449;28;20043;-79
2022/06/03 05:21:43;;;;;;;9.23;8.43;;;;;;;20.17;nan;99849.53;4964299;28;20035;-80
2022/06/03 05:24:36;;;;;;;8.00;7.40;;;;;;;20.26;nan;99833.09;4964671;28;20039;-79
2022/06/03 05:27:28;;;;;;;8.25;7.55;;;;;;;20.38;nan;99836.88;4963811;28;20031;-79
2022/06/03 05:30:12;;;;;;;10.10;9.10;;;;;;;20.47;nan;99840.25;4962490;28;20522;-79
2022/06/03 05:33:05;;;;;;;16.80;13.02;;;;;;;20.55;nan;99834.72;4963811;28;20039;-79
2022/06/03 05:35:37;;;;;;;17.90;13.10;;;;;;;20.62;nan;99848.94;4963373;28;20043;-79
2022/06/03 05:38:28;;;;;;;15.43;11.85;;;;;;;20.70;nan;99859.50;4964832;28;20137;-79
2022/06/03 05:40:59;;;;;;;11.68;10.13;;;;;;;20.76;nan;99856.03;4962588;28;20042;-79
2022/06/03 05:44:06;;;;;;;12.50;9.25;;;;;;;20.82;nan;99860.59;4962498;28;20399;-79
2022/06/03 05:46:58;;;;;;;8.98;8.27;;;;;;;20.89;nan;99870.50;4961694;28;20412;-79
2022/06/03 05:49:48;;;;;;;8.48;7.80;;;;;;;20.81;nan;99875.03;4962354;28;20487;-79
2022/06/03 05:52:41;;;;;;;7.82;7.22;;;;;;;20.77;nan;99873.78;4965071;28;20110;-81
2022/06/03 05:55:48;;;;;;;9.85;7.72;;;;;;;20.74;nan;99874.16;4959928;28;20118;-78
2022/06/03 05:58:13;;;;;;;8.30;7.43;;;;;;;20.62;nan;99881.13;4961723;28;20043;-78
2022/06/03 06:01:14;;;;;;;9.82;8.32;;;;;;;20.49;nan;99886.44;4963716;28;20039;-77
2022/06/03 06:03:49;;;;;;;9.48;8.60;;;;;;;20.50;nan;99882.72;4964090;28;20062;-79
2022/06/03 06:06:25;;;;;;;8.98;8.02;;;;;;;20.55;nan;99888.34;4962837;28;20039;-79
2022/06/03 06:09:32;;;;;;;9.88;8.70;;;;;;;20.61;nan;99889.41;4962294;28;20043;-78
2022/06/03 06:12:35;;;;;;;10.15;9.18;;;;;;;20.65;nan;99904.03;4962447;28;20033;-79
2022/06/03 06:15:07;;;;;;;12.25;8.90;;;;;;;20.69;nan;99902.59;4962936;28;20066;-79
2022/06/03 06:17:47;;;;;;;9.30;8.35;;;;;;;20.75;nan;99902.63;4963732;28;20035;-86
2022/06/03 06:20:22;;;;;;;;;;;;;;;20.76;nan;99909.66;4964789;28;20035;-79
2022/06/03 06:22:49;;;;;;;10.70;9.57;;;;;;;20.78;nan;99910.31;4961619;28;19925;-83
2022/06/03 06:25:31;;;;;;;10.52;9.60;;;;;;;20.75;nan;99907.19;4964267;28;20063;-80
2022/06/03 06:28:21;;;;;;;9.85;9.10;;;;;;;20.78;nan;99923.72;4962194;28;20182;-78
2022/06/03 06:31:19;;;;;;;10.00;9.02;;;;;;;20.83;nan;99926.63;4961894;28;20035;-76
2022/06/03 06:33:59;;;;;;;12.05;10.90;;;;;;;20.64;nan;99932.72;4954189;28;20456;-80
2022/06/03 06:36:38;;;;;;;12.75;11.63;;;;;;;20.71;nan;99933.56;4961984;28;20067;-83
2022/06/03 06:39:42;;;;;;;12.93;11.73;;;;;;;20.68;nan;99938.50;4964038;28;20031;-81
2022/06/03 06:42:10;;;;;;;12.20;11.15;;;;;;;20.67;nan;99932.31;4967788;28;20448;-81
2022/06/03 06:44:54;;;;;;;13.48;12.27;;;;;;;20.68;nan;99939.31;4963192;28;20437;-81
2022/06/03 06:47:30;;;;;;;14.82;13.38;;;;;;;20.77;nan;99931.94;4961332;28;20162;-81
2022/06/03 06:50:22;;;;;;;15.35;14.00;;;;;;;20.84;nan;99936.31;4961640;28;20146;-81
2022/06/03 06:53:10;;;;;;;14.45;13.25;;;;;;;20.97;nan;99940.09;4961623;28;20046;-82
2022/06/03 06:56:01;;;;;;;14.52;13.15;;;;;;;21.08;nan;99939.50;4965433;28;20104;-82
2022/06/03 06:58:45;;;;;;;14.75;13.25;;;;;;;21.18;nan;99945.34;4976774;28;20043;-83
2022/06/03 07:01:17;;;;;;;14.20;12.70;;;;;;;21.28;nan;99945.78;4962556;28;20534;-80
2022/06/03 07:04:00;;;;;;;16.27;13.40;;;;;;;21.38;nan;99958.84;4963674;28;20056;-81
2022/06/03 07:06:34;;;;;;;14.25;12.90;;;;;;;21.46;nan;99967.50;4962167;28;20055;-82
2022/06/03 07:09:31;;;;;;;15.27;13.75;;;;;;;21.54;nan;99967.34;4964611;28;20048;-82
2022/06/03 07:12:08;;;;;;;14.23;13.13;;;;;;;21.59;nan;99972.91;4981035;28;20035;-82
2022/06/03 07:14:45;;;;;;;14.85;13.45;;;;;;;21.57;nan;99956.19;4962358;28;20110;-82
2022/06/03 07:20:11;;;;;;;14.80;13.35;;;;;;;21.58;nan;99957.00;4965534;28;20027;-82
2022/06/03 07:22:51;;;;;;;15.40;14.02;;;;;;;21.57;nan;99948.13;4961885;28;20118;-81
2022/06/03 07:25:26;;;;;;;17.83;13.93;;;;;;;21.65;nan;99942.56;4966114;28;20039;-81
2022/06/03 07:28:15;;;;;;;15.30;13.80;;;;;;;21.83;nan;99939.28;4962004;28;20031;-82
2022/06/03 07:30:49;;;;;;;14.95;13.48;;;;;;;21.98;nan;99936.41;4969519;28;20039;-82
2022/06/03 07:37:18;;;;;;;14.82;13.43;;;;;;;22.32;nan;99922.75;4971541;28;20054;-81
2022/06/03 07:39:52;;;;;;;15.38;13.85;;;;;;;22.38;nan;99905.75;4962076;28;20062;-82
2022/06/03 07:42:43;;;;;;;14.43;13.13;;;;;;;22.44;nan;99896.84;4963513;28;20050;-82
2022/06/03 07:45:19;;;;;;;13.48;12.23;;;;;;;22.59;nan;99874.25;4963053;28;20049;-82
2022/06/03 07:47:44;;;;;;;14.68;13.15;;;;;;;22.72;nan;99869.69;4963902;28;20066;-82
2022/06/03 07:50:17;;;;;;;13.20;11.88;;;;;;;22.82;nan;99869.22;4965241;28;20397;-82
2022/06/03 07:52:50;;;;;;;13.75;12.43;;;;;;;22.86;nan;99856.97;4967599;28;20050;-81
2022/06/03 07:55:21;;;;;;;13.20;12.10;;;;;;;22.96;nan;99854.66;4964814;28;20039;-82
2022/06/03 07:57:57;;;;;;;13.68;12.30;;;;;;;23.02;nan;99851.09;4969970;28;20058;-82
2022/06/03 08:00:23;;;;;;;12.43;11.10;;;;;;;23.10;nan;99856.22;4967231;28;20562;-82
2022/06/03 08:03:06;;;;;;;13.88;12.48;;;;;;;23.14;nan;99849.38;4966664;28;20051;-82
2022/06/03 08:05:47;;;;;;;14.05;12.65;;;;;;;23.17;nan;99851.63;4963002;28;20133;-82
2022/06/03 08:11:06;;;;;;;13.93;12.57;;;;;;;23.31;nan;99873.09;4964550;28;20126;-82
2022/06/03 08:13:53;;;;;;;15.82;13.45;;;;;;;23.38;nan;99865.78;4961026;28;20069;-82
2022/06/03 08:16:23;;;;;;;14.88;13.35;;;;;;;23.43;nan;99857.88;4960514;28;20512;-82
2022/06/03 08:18:49;;;;;;;;;;;;;;;23.50;nan;99861.38;4963696;28;20050;-82
2022/06/03 08:21:24;;;;;;;19.38;17.40;;;;;;;23.52;nan;99861.97;4960886;28;19926;-82
2022/06/03 08:23:51;;;;;;;19.55;17.75;;;;;;;23.40;nan;99863.69;4960395;28;20047;-82
2022/06/03 08:26:22;;;;;;;23.80;19.73;;;;;;;23.28;nan;99856.31;4964050;28;20038;-82
2022/06/03 08:28:54;;;;;;;21.13;19.02;;;;;;;23.33;nan;99862.94;4963161;28;20055;-82
2022/06/03 08:34:54;;;;;;;22.58;20.02;;;;;;;23.56;nan;99849.72;4963034;28;20057;-82
2022/06/03 08:37:29;;;;;;;22.23;17.15;;;;;;;23.67;nan;99854.41;4960781;28;20043;-83
2022/06/03 08:39:58;;;;;;;20.00;17.85;;;;;;;23.77;nan;99852.03;4963775;28;20061;-82
2022/06/03 08:42:27;;;;;;;19.73;17.73;;;;;;;23.81;nan;99842.44;4962579;28;20429;-83
2022/06/03 08:45:17;;;;;;;22.95;16.85;;;;;;;23.81;nan;99847.84;4963513;28;20841;-82
2022/06/03 08:47:59;;;;;;;20.20;16.50;;;;;;;23.79;nan;99841.03;4965779;28;20488;-82
2022/06/03 08:50:55;;;;;;;17.23;15.43;;;;;;;23.65;nan;99829.53;4963988;28;20067;-83
2022/06/03 08:53:43;;;;;;;16.27;14.48;;;;;;;23.58;nan;99836.84;4963567;28;20427;-82
2022/06/03 08:56:14;;;;;;;16.13;14.57;;;;;;;23.60;nan;99845.53;4965419;28;20329;-82
2022/06/03 08:58:58;;;;;;;18.38;15.55;;;;;;;23.63;nan;99861.25;4964444;28;20439;-82
2022/06/03 09:01:48;;;;;;;18.67;16.77;;;;;;;23.49;nan;99865.13;4963802;28;20189;-82
2022/06/03 09:04:20;;;;;;;18.30;16.52;;;;;;;23.50;nan;99872.94;4966078;28;20094;-82
2022/06/03 09:07:10;;;;;;;20.15;17.70;;;;;;;23.35;nan;99872.41;4962520;28;20031;-83
2022/06/03 09:09:43;;;;;;;20.70;17.20;;;;;;;23.28;nan;99875.16;4963482;28;20130;-82
2022/06/03 09:12:20;;;;;;;21.63;16.90;;;;;;;23.31;nan;99868.53;4964974;28;20101;-82
2022/06/03 09:14:49;;;;;;;19.55;17.48;;;;;;;23.27;nan;99876.19;4965823;28;20122;-82
2022/06/03 09:17:28;;;;;;;18.08;16.35;;;;;;;23.16;nan;99876.88;4963703;28;20691;-82
2022/06/03 09:19:58;;;;;;;19.55;16.90;;;;;;;23.14;nan;99880.84;4963302;28;20035;-82
2022/06/03 09:22:28;;;;;;;18.55;16.13;;;;;;;23.09;nan;99878.78;4978697;28;20050;-82
2022/06/03 09:24:59;;;;;;;17.90;16.05;;;;;;;23.09;nan;99881.47;4966632;28;20031;-82
2022/06/03 09:27:27;;;;;;;18.38;15.70;;;;;;;23.12;nan;99891.00;4962877;28;20122;-82
2022/06/03 09:29:56;;;;;;;21.15;16.55;;;;;;;23.14;nan;99900.53;4963168;28;20046;-82
2022/06/03 09:32:26;;;;;;;18.02;16.13;;;;;;;23.18;nan;99904.44;4962902;28;20051;-82
2022/06/03 09:35:05;;;;;;;22.00;15.73;;;;;;;23.28;nan;99910.16;4963087;28;20035;-82
2022/06/03 09:37:35;;;;;;;21.02;17.35;;;;;;;23.38;nan;99906.19;4963100;28;20285;-82
2022/06/03 09:40:05;;;;;;;26.30;18.25;;;;;;;23.42;nan;99907.38;4965656;28;20047;-82
2022/06/03 09:42:33;;;;;;;18.88;15.85;;;;;;;23.48;nan;99907.38;4963504;28;20047;-82
2022/06/03 09:45:02;;;;;;;18.80;17.08;;;;;;;23.52;nan;99910.44;4966055;28;20484;-82
2022/06/03 09:47:29;;;;;;;17.45;15.85;;;;;;;23.52;nan;99918.53;4962746;28;20051;-82
2022/06/03 09:49:55;;;;;;;19.63;17.38;;;;;;;23.41;nan;99921.88;4966299;28;20046;-82
2022/06/03 09:52:24;;;;;;;18.52;16.65;;;;;;;23.43;nan;99930.59;4963053;28;20039;-81
2022/06/03 09:54:51;;;;;;;18.48;16.58;;;;;;;23.43;nan;99928.72;4965997;28;20383;-81
2022/06/03 09:57:35;;;;;;;21.13;18.13;;;;;;;23.41;nan;99922.72;4963771;28;20118;-81
2022/06/03 10:00:23;;;;;;;19.08;17.17;;;;;;;23.47;nan;99921.88;4985621;28;20059;-82
2022/06/03 10:02:49;;;;;;;20.95;18.25;;;;;;;23.46;nan;99930.16;4975885;28;20536;-82
2022/06/03 10:05:17;;;;;;;18.92;16.92;;;;;;;23.51;nan;99936.56;4962781;28;20047;-80
2022/06/03 10:07:47;;;;;;;22.42;19.23;;;;;;;23.54;nan;99938.84;4968024;28;20035;-81
2022/06/03 10:13:01;;;;;;;21.65;19.42;;;;;;;23.48;nan;99938.88;4993748;28;20279;-81
2022/06/03 10:15:41;;;;;;;20.98;18.95;;;;;;;23.46;nan;99924.75;4962719;28;20051;-81
2022/06/03 10:18:29;;;;;;;23.63;21.23;;;;;;;23.36;nan;99921.72;4965768;28;20041;-81
2022/06/03 10:21:19;;;;;;;25.20;19.48;;;;;;;23.36;nan;99924.41;4977845;28;20122;-81
2022/06/03 10:23:47;;;;;;;20.45;18.50;;;;;;;23.38;nan;99922.34;4962627;28;20435;-81
2022/06/03 10:26:34;;;;;;;21.27;19.08;;;;;;;23.38;nan;99927.72;4964230;28;20031;-81
2022/06/03 10:29:09;;;;;;;27.27;20.45;;;;;;;23.27;nan;99927.34;4977338;28;20455;-81
2022/06/03 10:31:36;;;;;;;21.92;19.73;;;;;;;23.25;nan;99928.63;4963992;28;20070;-81
2022/06/03 10:34:11;;;;;;;20.52;18.48;;;;;;;23.24;nan;99933.19;4962516;28;20027;-82
2022/06/03 10:36:43;;;;;;;22.75;18.73;;;;;;;23.23;nan;99930.69;4978286;28;20042;-82
2022/06/03 10:39:13;;;;;;;21.27;19.15;;;;;;;23.14;nan;99937.38;4963566;28;20076;-79
2022/06/03 10:41:43;;;;;;;23.15;20.75;;;;;;;23.11;nan;99937.81;4962974;28;20023;-81
2022/06/03 10:44:26;;;;;;;23.42;21.00;;;;;;;23.13;nan;99941.13;4963465;28;20059;-80
2022/06/03 10:46:57;;;;;;;23.35;20.60;;;;;;;23.10;nan;99938.84;4961458;28;20506;-81
2022/06/03 10:49:26;;;;;;;22.38;20.23;;;;;;;23.08;nan;99939.06;4959447;28;20035;-81
2022/06/03 11:02:56;;;;;;;22.85;20.50;;;;;;;22.88;nan;99961.72;4975970;28;20066;-80
2022/06/03 11:05:24;;;;;;;24.23;21.65;;;;;;;22.77;nan;99957.81;4963919;28;20098;-80
2022/06/03 11:08:08;;;;;;;25.23;22.63;;;;;;;22.66;nan;99963.81;4965123;28;20079;-81
2022/06/03 11:10:40;;;;;;;29.08;22.45;;;;;;;22.64;nan;99963.19;4961988;28;20066;-80
2022/06/03 11:13:09;;;;;;;25.60;22.88;;;;;;;22.57;nan;99968.59;4963088;28;20484;-80
2022/06/03 11:15:40;;;;;;;26.52;23.73;;;;;;;22.59;nan;99968.38;4961756;28;20480;-80
2022/06/03 11:18:13;;;;;;;31.05;25.15;;;;;;;22.55;nan;99969.84;4962554;28;20023;-80
2022/06/03 11:20:39;;;;;;;28.33;25.45;;;;;;;22.56;nan;99966.13;4962160;28;20085;-81
2022/06/03 11:23:15;;;;;;;27.83;24.88;;;;;;;22.56;nan;99966.13;4960330;28;20131;-80
2022/06/03 11:25:47;;;;;;;29.38;25.40;;;;;;;22.57;nan;99973.97;4961399;28;20050;-80
2022/06/03 11:28:18;;;;;;;29.92;26.58;;;;;;;22.61;nan;99979.78;4961686;28;20424;-80
2022/06/03 11:31:21;;;;;;;30.00;25.35;;;;;;;22.50;nan;99977.72;4961542;28;20126;-80
2022/06/03 11:34:22;;;;;;;30.33;27.20;;;;;;;22.45;nan;99981.84;4962795;28;20031;-80
2022/06/03 11:36:56;;;;;;;31.52;27.63;;;;;;;22.40;nan;99984.34;4958736;28;20051;-80
2022/06/03 11:39:40;;;;;;;33.15;29.15;;;;;;;22.26;nan;99993.47;4960356;28;20345;-80
2022/06/03 11:42:16;;;;;;;32.83;29.52;;;;;;;22.35;nan;99988.69;4961780;28;20039;-80
2022/06/03 11:44:55;;;;;;;33.08;29.52;;;;;;;22.39;nan;99988.06;4961331;28;20034;-80
2022/06/03 11:47:49;;;;;;;35.95;31.90;;;;;;;22.26;nan;99993.47;4960222;28;20039;-80
2022/06/03 11:50:18;;;;;;;37.03;33.15;;;;;;;22.19;nan;99975.69;4963145;28;20035;-80
2022/06/03 11:52:44;;;;;;;39.70;33.58;;;;;;;22.31;nan;99977.53;4961118;28;20041;-80
2022/06/03 11:55:11;;;;;;;41.03;36.72;;;;;;;22.30;nan;99986.63;4962356;28;20103;-80
2022/06/03 11:57:41;;;;;;;41.15;36.75;;;;;;;22.21;nan;99985.19;4961784;28;20066;-80
2022/06/03 12:00:10;;;;;;;42.05;36.97;;;;;;;22.29;nan;99979.59;4961556;28;20032;-80
2022/06/03 12:02:41;;;;;;;43.40;36.35;;;;;;;22.42;nan;99966.16;4960722;28;20069;-81
2022/06/03 12:05:15;;;;;;;41.88;37.38;;;;;;;22.59;nan;99963.84;4961526;28;20063;-80
2022/06/03 12:07:50;;;;;;;41.92;37.50;;;;;;;22.67;nan;99957.41;4959588;28;20039;-80
2022/06/03 12:10:34;;;;;;;41.88;36.58;;;;;;;22.79;nan;99940.44;4962893;28;20039;-80
2022/06/03 12:13:15;;;;;;;45.80;36.80;;;;;;;23.07;nan;99937.41;4960742;28;20047;-79
2022/06/03 12:15:49;;;;;;;42.65;37.17;;;;;;;23.28;nan;99934.41;4961045;28;20528;-80
2022/06/03 12:18:14;;;;;;;46.38;39.28;;;;;;;23.32;nan;99933.97;4977409;28;20039;-80
2022/06/03 12:20:47;;;;;;;45.72;39.20;;;;;;;23.35;nan;99937.06;4961154;28;20042;-79
2022/06/03 12:23:12;;;;;;;41.95;37.55;;;;;;;23.46;nan;99927.44;4962012;28;20035;-81
2022/06/03 12:25:41;;;;;;;44.83;40.03;;;;;;;23.55;nan;99931.59;4960996;28;20042;-79
2022/06/03 12:28:21;;;;;;;43.47;38.78;;;;;;;23.55;nan;99934.28;4961402;28;20043;-79
2022/06/03 12:30:50;;;;;;;;;;;;;;;23.58;nan;99936.53;4960681;28;20035;-81
2022/06/03 12:33:23;;;;;;;42.65;37.67;;;;;;;23.53;nan;99933.66;4962588;28;19956;-81
2022/06/03 12:36:00;;;;;;;42.97;38.47;;;;;;;23.30;nan;99936.06;4959941;28;20043;-79
2022/06/03 12:38:30;;;;;;;43.60;38.55;;;;;;;23.20;nan;99931.97;4960507;28;20090;-81
2022/06/03 12:40:58;;;;;;;43.88;38.15;;;;;;;23.01;nan;99922.13;4972522;28;20038;-81
2022/06/03 12:43:46;;;;;;;43.80;38.75;;;;;;;22.88;nan;99927.56;4969130;28;20126;-81
2022/06/03 12:46:36;;;;;;;46.28;41.05;;;;;;;22.92;nan;99918.00;4959907;28;20078;-82
2022/06/03 12:49:04;;;;;;;;;;;;;;;22.90;nan;99909.34;4960823;28;20094;-80
2022/06/03 12:52:01;;;;;;;44.85;40.08;;;;;;;22.93;nan;99898.13;4962379;28;19918;-78
2022/06/03 12:54:27;;;;;;;49.90;43.00;;;;;;;22.97;nan;99894.00;4960275;28;20046;-77
2022/06/03 12:57:10;;;;;;;45.67;40.67;;;;;;;23.03;nan;99898.50;4959649;28;20034;-81
2022/06/03 12:59:54;;;;;;;47.38;41.78;;;;;;;23.11;nan;99903.63;4959350;28;20039;-79
2022/06/03 13:02:25;;;;;;;45.70;40.88;;;;;;;23.18;nan;99896.34;4959474;28;20043;-79
2022/06/03 13:04:54;;;;;;;48.78;40.45;;;;;;;23.22;nan;99892.19;4962886;28;20079;-79
2022/06/03 13:07:25;;;;;;;47.17;41.42;;;;;;;23.30;nan;99890.28;4959710;28;20039;-79
2022/06/03 13:09:54;;;;;;;47.13;40.33;;;;;;;23.35;nan;99882.38;4974249;28;20189;-81
2022/06/03 13:12:32;;;;;;;44.87;40.17;;;;;;;23.41;nan;99878.81;4963327;28;20031;-79
2022/06/03 13:15:21;;;;;;;46.25;41.10;;;;;;;23.47;nan;99875.28;4962939;28;20279;-78
2022/06/03 13:20:46;;;;;;;48.25;41.00;;;;;;;23.52;nan;99875.44;4963581;28;20435;-79
2022/06/03 13:23:38;;;;;;;52.67;41.90;;;;;;;23.50;nan;99882.94;4962783;28;20038;-79